Time;durP1;ratioP1;P1;durP2;ratioP2;P2;SDS_P1;SDS_P2;PMS_P1;PMS_P2;Temp;Humidity;BMP_temperature;BMP_pressure;BME280_temperature;BME280_humidity;BME280_pressure;Samples;Min_cycle;Max_cycle;Signal;HPM_P1;HPM_P2
2021/01/03 00:01:26;;;;;;;7.40;6.87;;;;;;;2.11;74.26;100412.06;5050159;28;20171;-75
2021/01/03 00:03:51;;;;;;;6.87;6.27;;;;;;;2.10;74.38;100402.34;5050143;28;20532;-78
2021/01/03 00:06:17;;;;;;;6.27;5.77;;;;;;;2.13;73.86;100401.84;5049926;28;20175;-79
2021/01/03 00:08:43;;;;;;;6.73;6.13;;;;;;;2.11;73.89;100406.66;5049954;28;20521;-78
2021/01/03 00:11:09;;;;;;;6.33;5.73;;;;;;;2.12;74.21;100399.41;5050159;28;20539;-75
2021/01/03 00:13:34;;;;;;;7.83;7.13;;;;;;;2.08;74.51;100408.00;5050138;28;20417;-79
2021/01/03 00:15:59;;;;;;;7.73;7.03;;;;;;;2.07;74.74;100401.00;5050082;28;20707;-76
2021/01/03 00:18:25;;;;;;;7.40;6.70;;;;;;;2.08;74.58;100399.91;5049975;28;20179;-79
2021/01/03 00:20:50;;;;;;;7.43;6.83;;;;;;;2.07;74.86;100397.47;5049988;28;20179;-75
2021/01/03 00:23:18;;;;;;;7.27;6.57;;;;;;;2.07;74.70;100398.28;5049934;28;20180;-80
2021/01/03 00:25:43;;;;;;;6.93;6.27;;;;;;;2.06;75.07;100402.06;5049948;28;20523;-80
2021/01/03 00:28:08;;;;;;;7.20;6.60;;;;;;;2.02;75.26;100395.53;5049681;28;20543;-78
2021/01/03 00:30:34;;;;;;;7.63;6.93;;;;;;;2.02;75.36;100395.53;5048721;28;20175;-79
2021/01/03 00:33:00;;;;;;;7.67;6.97;;;;;;;2.02;75.10;100402.81;5050088;28;20175;-75
2021/01/03 00:35:31;;;;;;;7.07;6.47;;;;;;;2.02;75.22;100405.50;5052754;28;20171;-78
2021/01/03 00:38:02;;;;;;;7.77;7.07;;;;;;;2.00;75.34;100394.16;5051974;28;20171;-80
2021/01/03 00:40:28;;;;;;;7.33;6.73;;;;;;;1.98;75.60;100399.00;5053773;28;20414;-77
2021/01/03 00:42:54;;;;;;;7.23;6.60;;;;;;;1.99;75.32;100401.44;5053622;28;20452;-80
2021/01/03 00:45:19;;;;;;;7.60;6.90;;;;;;;2.00;75.20;100400.38;5053466;28;20437;-79
2021/01/03 00:47:44;;;;;;;6.87;6.30;;;;;;;1.98;75.47;100396.31;5053182;28;20289;-79
2021/01/03 00:50:11;;;;;;;6.57;6.03;;;;;;;1.98;75.29;100399.81;5053267;28;20262;-78
2021/01/03 00:52:37;;;;;;;7.17;6.47;;;;;;;1.97;75.52;100398.19;5051802;28;20548;-79
2021/01/03 00:55:04;;;;;;;6.17;5.67;;;;;;;1.99;75.14;100398.75;5047861;28;20440;-79
2021/01/03 00:57:29;;;;;;;6.73;5.40;;;;;;;2.03;74.69;100396.38;5052876;28;20183;-78
2021/01/03 00:59:55;;;;;;;6.83;6.23;;;;;;;2.01;74.89;100393.09;5053117;28;20418;-80
2021/01/03 01:02:20;;;;;;;6.70;6.10;;;;;;;2.00;74.85;100394.16;5051733;28;20286;-78
2021/01/03 01:04:45;;;;;;;5.90;5.40;;;;;;;2.01;74.86;100395.78;5051685;28;20267;-80
2021/01/03 01:07:10;;;;;;;7.30;6.60;;;;;;;1.99;75.09;100401.44;5052964;28;20285;-78
2021/01/03 01:09:36;;;;;;;6.03;5.50;;;;;;;1.97;75.09;100395.50;5053236;28;20179;-80
2021/01/03 01:12:01;;;;;;;7.30;5.80;;;;;;;1.96;75.39;100399.25;5053276;28;20626;-77
2021/01/03 01:14:27;;;;;;;7.00;6.40;;;;;;;1.97;75.25;100400.06;5052983;28;20176;-76
2021/01/03 01:16:52;;;;;;;6.80;6.23;;;;;;;1.95;75.08;100397.63;5052778;28;20560;-77
2021/01/03 01:19:17;;;;;;;6.80;6.20;;;;;;;1.94;75.67;100400.59;5052847;28;20171;-74
2021/01/03 01:21:43;;;;;;;7.40;6.80;;;;;;;1.92;75.86;100402.72;5052639;28;20679;-76
2021/01/03 01:24:09;;;;;;;6.70;6.10;;;;;;;1.90;76.07;100402.19;5052959;28;20531;-77
2021/01/03 01:26:34;;;;;;;7.50;6.83;;;;;;;1.89;76.20;100405.94;5052299;28;20297;-77
2021/01/03 01:28:59;;;;;;;7.00;6.40;;;;;;;1.89;76.41;100403.25;5052732;28;20167;-79
2021/01/03 01:31:25;;;;;;;6.47;5.83;;;;;;;1.90;76.51;100412.94;5052623;28;20175;-78
2021/01/03 01:33:50;;;;;;;6.13;5.53;;;;;;;1.91;76.33;100403.81;5052611;28;20654;-73
2021/01/03 01:36:15;;;;;;;6.37;5.33;;;;;;;1.91;76.29;100396.53;5052303;28;20171;-78
2021/01/03 01:38:41;;;;;;;6.60;6.00;;;;;;;1.95;75.63;100408.41;5052621;28;20226;-77
2021/01/03 01:41:06;;;;;;;6.03;5.53;;;;;;;1.96;75.64;100393.06;5052568;28;20222;-79
2021/01/03 01:43:32;;;;;;;6.80;6.17;;;;;;;1.99;75.69;100397.94;5052376;28;20182;-77
2021/01/03 01:45:58;;;;;;;6.13;5.63;;;;;;;2.00;75.62;100394.97;5052826;28;20523;-75
2021/01/03 01:48:33;;;;;;;6.47;5.97;;;;;;;2.01;75.34;100399.31;5052117;28;20306;-76
2021/01/03 01:51:04;;;;;;;6.47;5.70;;;;;;;2.02;75.26;100405.50;5052202;28;20167;-76
2021/01/03 01:54:03;;;;;;;6.90;6.20;;;;;;;2.02;75.13;100403.63;5052164;28;20413;-77
2021/01/03 01:56:31;;;;;;;7.67;7.07;;;;;;;2.02;75.28;100408.19;5052174;28;20406;-74
2021/01/03 01:59:01;;;;;;;8.57;5.90;;;;;;;2.01;75.49;100402.00;5051967;28;20418;-76
2021/01/03 02:01:40;;;;;;;6.97;6.27;;;;;;;1.99;76.01;100398.75;5051992;28;20784;-79
2021/01/03 02:04:29;;;;;;;6.40;5.90;;;;;;;1.98;75.90;100404.38;5051725;28;20423;-78
2021/01/03 02:07:04;;;;;;;6.93;6.30;;;;;;;1.98;75.75;100397.13;5051610;28;21023;-78
2021/01/03 02:10:14;;;;;;;7.30;6.70;;;;;;;1.95;76.12;100386.88;5051710;28;20433;-78
2021/01/03 02:12:44;;;;;;;7.03;6.33;;;;;;;1.95;76.24;100388.75;5051996;28;20429;-80
2021/01/03 02:15:23;;;;;;;6.03;5.53;;;;;;;1.92;76.25;100382.00;5051931;28;20418;-79
2021/01/03 02:17:49;;;;;;;6.73;6.13;;;;;;;1.92;76.46;100386.56;5051414;28;20426;-76
2021/01/03 02:20:16;;;;;;;6.53;5.93;;;;;;;1.92;76.92;100375.78;5051797;28;20417;-76
2021/01/03 02:22:51;;;;;;;6.50;6.00;;;;;;;1.89;76.69;100370.94;5051974;28;20179;-76
2021/01/03 02:25:18;;;;;;;6.50;5.90;;;;;;;1.89;77.06;100371.75;5051739;28;20424;-78
2021/01/03 02:27:45;;;;;;;8.43;6.70;;;;;;;1.85;77.25;100367.09;5051699;28;20473;-78
2021/01/03 02:30:12;;;;;;;6.63;6.03;;;;;;;1.86;77.35;100366.03;5051502;28;20494;-74
2021/01/03 02:32:42;;;;;;;5.80;5.30;;;;;;;1.85;77.47;100370.59;5050214;28;20417;-77
2021/01/03 02:35:11;;;;;;;6.70;6.00;;;;;;;1.82;77.86;100368.41;5051537;28;20413;-76
2021/01/03 02:37:40;;;;;;;7.77;7.00;;;;;;;1.81;77.95;100366.00;5051451;28;20452;-76
2021/01/03 02:40:11;;;;;;;6.40;5.80;;;;;;;1.80;78.03;100362.47;5051399;28;20916;-78
2021/01/03 02:42:38;;;;;;;6.00;5.50;;;;;;;1.79;77.68;100366.25;5051225;28;21174;-78
2021/01/03 02:45:13;;;;;;;6.37;5.83;;;;;;;1.77;77.81;100369.19;5051102;28;20422;-74
2021/01/03 02:47:39;;;;;;;6.93;6.13;;;;;;;1.78;78.21;100373.50;5050955;28;20466;-76
2021/01/03 02:50:07;;;;;;;6.23;5.70;;;;;;;1.81;77.99;100371.38;5051277;28;20972;-75
2021/01/03 02:52:38;;;;;;;6.03;5.53;;;;;;;1.82;77.72;100379.19;5051207;28;20179;-75
2021/01/03 02:55:05;;;;;;;5.93;5.43;;;;;;;1.81;78.10;100372.19;5051120;28;20429;-78
2021/01/03 02:57:30;;;;;;;6.03;5.47;;;;;;;1.80;78.14;100370.56;5050372;28;21002;-77
2021/01/03 02:59:55;;;;;;;5.50;5.00;;;;;;;1.81;78.05;100374.88;5051037;28;20418;-79
2021/01/03 03:02:21;;;;;;;6.57;5.97;;;;;;;1.83;77.95;100377.31;5051239;28;20206;-76
2021/01/03 03:04:47;;;;;;;6.77;6.17;;;;;;;1.84;78.11;100373.56;5066387;28;20175;-75
2021/01/03 03:07:12;;;;;;;5.50;5.00;;;;;;;1.84;78.20;100374.38;5050886;28;20222;-78
2021/01/03 03:09:38;;;;;;;6.60;6.03;;;;;;;1.82;78.29;100376.50;5050920;28;20171;-75
2021/01/03 03:12:04;;;;;;;6.87;6.20;;;;;;;1.87;77.87;100375.72;5050857;28;20168;-75
2021/01/03 03:14:29;;;;;;;6.63;6.03;;;;;;;1.88;78.16;100369.28;5050811;28;20186;-77
2021/01/03 03:16:59;;;;;;;6.83;6.23;;;;;;;1.87;77.77;100367.66;5050573;28;20175;-76
2021/01/03 03:19:25;;;;;;;7.90;7.30;;;;;;;1.87;78.25;100370.34;5050440;28;20584;-78
2021/01/03 03:21:51;;;;;;;6.47;5.97;;;;;;;1.87;78.36;100370.34;5050859;28;20427;-79
2021/01/03 03:24:17;;;;;;;6.87;6.17;;;;;;;1.84;78.67;100374.38;5050767;28;20627;-77
2021/01/03 03:26:43;;;;;;;6.80;6.20;;;;;;;1.87;78.55;100373.03;5050364;28;20489;-78
2021/01/03 03:29:08;;;;;;;7.40;6.70;;;;;;;1.88;78.42;100371.97;5050988;28;20206;-76
2021/01/03 03:31:34;;;;;;;6.97;6.37;;;;;;;1.86;78.57;100366.03;5050780;28;20193;-78
2021/01/03 03:33:59;;;;;;;7.60;6.90;;;;;;;1.86;78.86;100363.34;5050673;28;20225;-77
2021/01/03 03:36:25;;;;;;;5.87;5.37;;;;;;;1.85;78.77;100356.31;5050501;28;20643;-75
2021/01/03 03:38:50;;;;;;;6.97;6.37;;;;;;;1.83;79.04;100367.34;5050558;28;20179;-78
2021/01/03 03:41:24;;;;;;;6.80;6.10;;;;;;;1.82;79.15;100359.53;5050584;28;20171;-78
2021/01/03 03:43:50;;;;;;;8.03;7.33;;;;;;;1.81;79.28;100360.59;5050661;28;20158;-80
2021/01/03 03:46:15;;;;;;;8.03;7.33;;;;;;;1.78;79.50;100360.06;5050566;28;20410;-79
2021/01/03 03:48:40;;;;;;;8.03;6.97;;;;;;;1.78;79.63;100356.53;5050506;28;20239;-76
2021/01/03 03:51:06;;;;;;;7.60;6.80;;;;;;;1.77;79.60;100363.81;5050663;28;20654;-78
2021/01/03 03:53:31;;;;;;;8.33;7.53;;;;;;;1.79;79.67;100358.97;5050549;28;20176;-78
2021/01/03 03:55:57;;;;;;;8.40;7.70;;;;;;;1.80;79.83;100357.09;5050443;28;20175;-79
2021/01/03 03:58:23;;;;;;;8.53;7.70;;;;;;;1.78;80.08;100353.84;5050302;28;20176;-76
2021/01/03 04:00:48;;;;;;;7.87;7.17;;;;;;;1.77;80.15;100361.13;5050491;28;20262;-74
2021/01/03 04:03:17;;;;;;;8.40;7.67;;;;;;;1.76;80.61;100361.38;5050304;28;20980;-79
2021/01/03 04:05:47;;;;;;;8.90;8.10;;;;;;;1.75;80.28;100354.38;5050464;28;20186;-77
2021/01/03 04:08:15;;;;;;;9.17;8.37;;;;;;;1.75;80.52;100363.25;5050079;28;20487;-79
2021/01/03 04:10:41;;;;;;;9.03;8.13;;;;;;;1.73;80.60;100354.59;5054439;28;20410;-79
2021/01/03 04:13:08;;;;;;;9.60;8.63;;;;;;;1.74;80.95;100360.81;5061735;28;20416;-79
2021/01/03 04:15:33;;;;;;;7.93;7.13;;;;;;;1.73;80.69;100351.91;5061609;28;20167;-79
2021/01/03 04:17:58;;;;;;;9.63;8.53;;;;;;;1.74;80.68;100358.94;5054548;28;20786;-77
2021/01/03 04:20:24;;;;;;;8.47;7.67;;;;;;;1.73;80.94;100359.16;5054204;28;20198;-79
2021/01/03 04:22:49;;;;;;;8.23;7.53;;;;;;;1.74;80.64;100361.63;5053997;28;20179;-80
2021/01/03 04:25:15;;;;;;;8.67;7.87;;;;;;;1.74;81.20;100368.91;5053986;28;20175;-80
2021/01/03 04:27:41;;;;;;;9.17;8.27;;;;;;;1.75;80.82;100363.25;5053790;28;20214;-80
2021/01/03 04:30:07;;;;;;;8.60;7.83;;;;;;;1.74;80.85;100356.25;5053865;28;20429;-80
2021/01/03 04:32:33;;;;;;;8.63;7.83;;;;;;;1.75;80.93;100357.06;5053854;28;20535;-79
2021/01/03 04:34:58;;;;;;;9.17;8.30;;;;;;;1.73;81.22;100372.63;5054143;28;20418;-80
2021/01/03 04:37:23;;;;;;;9.10;8.30;;;;;;;1.73;81.02;100372.63;5053366;28;20180;-80
2021/01/03 04:39:49;;;;;;;8.70;7.90;;;;;;;1.72;81.25;100368.31;5053761;28;20163;-80
2021/01/03 04:42:20;;;;;;;12.03;7.90;;;;;;;1.72;81.24;100369.13;5053543;28;20178;-75
2021/01/03 04:44:48;;;;;;;8.70;7.90;;;;;;;1.68;81.51;100368.03;5053720;28;20175;-80
2021/01/03 04:47:13;;;;;;;7.80;7.10;;;;;;;1.71;81.35;100367.50;5053417;28;20464;-78
2021/01/03 04:49:47;;;;;;;9.00;7.27;;;;;;;1.68;81.93;100370.72;5053788;28;20418;-80
2021/01/03 04:52:29;;;;;;;8.13;7.33;;;;;;;1.67;81.71;100358.31;5053383;28;20198;-78
2021/01/03 04:55:08;;;;;;;8.13;7.33;;;;;;;1.69;81.65;100375.03;5053404;28;20413;-79
2021/01/03 04:57:44;;;;;;;8.17;7.37;;;;;;;1.69;81.73;100366.94;5053274;28;20409;-79
2021/01/03 05:00:10;;;;;;;9.27;8.37;;;;;;;1.68;81.96;100373.41;5053241;28;20413;-79
2021/01/03 05:03:00;;;;;;;9.53;8.73;;;;;;;1.68;82.10;100370.72;5053522;28;20809;-75
2021/01/03 05:05:31;;;;;;;9.10;8.13;;;;;;;1.69;81.77;100372.34;5053280;28;20325;-79
2021/01/03 05:08:10;;;;;;;8.77;7.97;;;;;;;1.69;81.78;100366.94;5052936;28;20480;-79
2021/01/03 05:10:36;;;;;;;7.43;6.73;;;;;;;1.71;81.60;100364.00;5053192;28;20424;-79
2021/01/03 05:13:23;;;;;;;9.23;8.43;;;;;;;1.70;81.66;100373.97;5053100;28;20766;-80
2021/01/03 05:15:48;;;;;;;10.83;8.13;;;;;;;1.70;81.94;100373.97;5053054;28;20168;-79
2021/01/03 05:18:15;;;;;;;9.47;8.43;;;;;;;1.68;82.03;100368.03;5053050;28;20414;-80
2021/01/03 05:20:40;;;;;;;9.93;8.93;;;;;;;1.67;81.95;100363.72;5052570;28;20171;-79
2021/01/03 05:23:18;;;;;;;10.13;9.13;;;;;;;1.69;82.03;100372.34;5052839;28;20760;-77
2021/01/03 05:25:44;;;;;;;9.27;8.37;;;;;;;1.69;82.24;100374.22;5051393;28;20174;-79
2021/01/03 05:28:23;;;;;;;10.83;9.83;;;;;;;1.70;81.85;100373.97;5052516;28;20552;-77
2021/01/03 05:30:49;;;;;;;9.87;8.87;;;;;;;1.69;82.10;100368.84;5052666;28;20426;-79
2021/01/03 05:33:26;;;;;;;10.47;8.87;;;;;;;1.68;82.08;100369.91;5052673;28;20422;-80
2021/01/03 05:35:52;;;;;;;9.97;9.07;;;;;;;1.67;82.83;100379.84;5052446;28;20516;-76
2021/01/03 05:38:39;;;;;;;11.43;10.33;;;;;;;1.64;83.07;100369.59;5052491;28;20504;-80
2021/01/03 05:41:10;;;;;;;9.87;8.73;;;;;;;1.63;82.85;100367.97;5052801;28;20277;-78
2021/01/03 05:43:36;;;;;;;10.60;9.50;;;;;;;1.62;82.96;100363.66;5051111;28;20942;-79
2021/01/03 05:46:06;;;;;;;9.93;8.70;;;;;;;1.66;82.65;100372.84;5052327;28;20430;-78
2021/01/03 05:48:40;;;;;;;10.87;9.67;;;;;;;1.67;82.88;100369.09;5052425;28;20210;-77
2021/01/03 05:51:30;;;;;;;10.57;8.77;;;;;;;1.63;82.86;100377.94;5052350;28;20406;-78
2021/01/03 05:54:03;;;;;;;10.53;8.30;;;;;;;1.64;82.94;100366.91;5052284;28;20414;-78
2021/01/03 05:56:30;;;;;;;10.77;9.83;;;;;;;1.65;82.68;100371.22;5052017;28;20440;-78
2021/01/03 05:58:56;;;;;;;11.77;10.63;;;;;;;1.64;82.78;100375.00;5051978;28;20483;-77
2021/01/03 06:01:34;;;;;;;12.23;10.83;;;;;;;1.62;82.95;100377.13;5052687;28;20418;-79
2021/01/03 06:04:20;;;;;;;12.73;11.53;;;;;;;1.62;82.92;100374.44;5052206;28;20186;-76
2021/01/03 06:06:45;;;;;;;11.30;10.10;;;;;;;1.59;83.35;100377.63;5051887;28;20457;-80
2021/01/03 06:09:12;;;;;;;10.97;10.00;;;;;;;1.60;83.17;100373.88;5052069;28;20433;-79
2021/01/03 06:11:37;;;;;;;10.87;9.77;;;;;;;1.61;83.15;100377.38;5051848;28;20186;-77
2021/01/03 06:14:03;;;;;;;12.60;11.50;;;;;;;1.61;83.41;100385.47;5051872;28;20414;-78
2021/01/03 06:16:30;;;;;;;12.83;11.57;;;;;;;1.59;83.64;100379.50;5051734;28;20205;-78
2021/01/03 06:19:04;;;;;;;12.17;8.80;;;;;;;1.60;83.40;100379.25;5051686;28;20217;-79
2021/01/03 06:21:35;;;;;;;12.37;11.27;;;;;;;1.59;83.30;100374.94;5050469;28;20429;-76
2021/01/03 06:24:19;;;;;;;12.77;11.57;;;;;;;1.59;83.52;100374.94;5051620;28;20429;-76
2021/01/03 06:27:00;;;;;;;12.70;11.43;;;;;;;1.59;83.43;100379.50;5051271;28;20460;-74
2021/01/03 06:29:33;;;;;;;12.87;11.57;;;;;;;1.61;83.30;100385.47;5051598;28;20512;-79
2021/01/03 06:32:15;;;;;;;10.63;9.53;;;;;;;1.61;83.24;100386.28;5050795;28;20409;-76
2021/01/03 06:34:42;;;;;;;11.87;10.67;;;;;;;1.58;83.22;100386.75;5051559;28;20910;-77
2021/01/03 06:37:21;;;;;;;12.87;11.57;;;;;;;1.59;83.41;100384.88;5051335;28;20487;-81
2021/01/03 06:40:14;;;;;;;9.33;8.27;;;;;;;1.59;83.39;100382.19;5051420;28;20463;-78
2021/01/03 06:42:42;;;;;;;11.93;10.83;;;;;;;1.59;82.93;100385.72;5051367;28;20429;-75
2021/01/03 06:45:41;;;;;;;12.13;10.73;;;;;;;1.60;82.83;100387.34;5051192;28;20902;-75
2021/01/03 06:48:21;;;;;;;11.10;9.93;;;;;;;1.60;83.08;100381.97;5050915;28;20541;-77
2021/01/03 06:51:09;;;;;;;12.33;11.13;;;;;;;1.58;83.18;100381.38;5051068;28;20909;-77
2021/01/03 06:53:53;;;;;;;12.23;10.80;;;;;;;1.58;83.23;100381.38;5051268;28;20418;-75
2021/01/03 06:56:49;;;;;;;11.23;10.23;;;;;;;1.58;83.22;100384.06;5050968;28;20764;-79
2021/01/03 06:59:21;;;;;;;10.17;9.30;;;;;;;1.57;83.23;100387.00;5050766;28;20555;-77
2021/01/03 07:01:47;;;;;;;11.53;10.37;;;;;;;1.54;83.43;100388.34;5051027;28;20509;-78
2021/01/03 07:04:25;;;;;;;12.07;10.87;;;;;;;1.55;83.69;100389.16;5050821;28;20815;-78
2021/01/03 07:06:52;;;;;;;16.50;10.77;;;;;;;1.54;83.41;100390.22;5050739;28;20834;-78
2021/01/03 07:09:17;;;;;;;11.90;10.57;;;;;;;1.55;83.43;100389.16;5049563;28;20512;-75
2021/01/03 07:11:47;;;;;;;10.57;9.57;;;;;;;1.54;83.24;100382.94;5050560;28;20889;-76
2021/01/03 07:14:22;;;;;;;12.10;9.83;;;;;;;1.54;83.37;100377.56;5050793;28;20175;-76
2021/01/03 07:17:14;;;;;;;11.10;10.10;;;;;;;1.55;83.05;100371.13;5050748;28;20417;-76
2021/01/03 07:19:48;;;;;;;11.13;9.40;;;;;;;1.56;83.32;100378.13;5050813;28;20418;-79
2021/01/03 07:22:21;;;;;;;12.10;11.00;;;;;;;1.57;83.14;100384.31;5050717;28;20417;-78
2021/01/03 07:24:46;;;;;;;9.90;8.53;;;;;;;1.60;82.79;100378.44;5049377;28;20421;-79
2021/01/03 07:27:33;;;;;;;11.10;9.80;;;;;;;1.57;83.20;100382.44;5050413;28;20995;-79
2021/01/03 07:30:02;;;;;;;13.40;12.00;;;;;;;1.56;83.48;100385.38;5050602;28;20171;-78
2021/01/03 07:32:32;;;;;;;12.60;10.20;;;;;;;1.56;83.63;100388.09;5050437;28;20751;-78
2021/01/03 07:34:58;;;;;;;14.68;13.38;;;;;;;1.56;83.17;100382.69;5050278;28;20430;-77
2021/01/03 07:37:31;;;;;;;12.90;10.63;;;;;;;1.58;82.82;100383.25;5050327;28;20645;-76
2021/01/03 07:39:56;;;;;;;12.93;11.30;;;;;;;1.58;83.04;100384.06;5050503;28;20520;-78
2021/01/03 07:42:34;;;;;;;14.37;12.90;;;;;;;1.60;83.19;100381.16;5050392;28;20418;-76
2021/01/03 07:45:09;;;;;;;13.93;12.53;;;;;;;1.58;83.41;100384.06;5054533;28;20193;-78
2021/01/03 07:47:43;;;;;;;12.93;11.43;;;;;;;1.60;82.95;100381.97;5054456;28;20480;-79
2021/01/03 07:50:30;;;;;;;10.13;9.13;;;;;;;1.59;83.29;100392.94;5054480;28;20401;-79
2021/01/03 07:53:23;;;;;;;12.53;11.00;;;;;;;1.61;82.74;100390.84;5054348;28;20414;-77
2021/01/03 07:55:49;;;;;;;13.33;12.13;;;;;;;1.60;83.16;100394.59;5053303;28;20437;-78
2021/01/03 07:58:21;;;;;;;13.80;12.10;;;;;;;1.59;83.20;100388.41;5054362;28;20410;-79
2021/01/03 08:00:53;;;;;;;13.70;12.40;;;;;;;1.61;83.29;100391.66;5054582;28;20218;-80
2021/01/03 08:03:23;;;;;;;14.43;12.73;;;;;;;1.61;83.25;100396.22;5054222;28;20425;-78
2021/01/03 08:05:48;;;;;;;13.53;11.33;;;;;;;1.65;83.18;100394.66;5054126;28;20445;-80
2021/01/03 08:08:21;;;;;;;13.00;11.80;;;;;;;1.66;83.30;100394.41;5054039;28;20870;-77
2021/01/03 08:10:49;;;;;;;15.00;12.47;;;;;;;1.68;83.37;100396.81;5054202;28;20167;-79
2021/01/03 08:13:20;;;;;;;15.37;12.60;;;;;;;1.68;83.26;100402.22;5054134;28;20418;-77
2021/01/03 08:15:45;;;;;;;14.60;13.17;;;;;;;1.68;83.50;100399.53;5054017;28;20414;-77
2021/01/03 08:18:15;;;;;;;15.67;13.67;;;;;;;1.68;83.50;100396.81;5053966;28;20422;-79
2021/01/03 08:20:41;;;;;;;14.90;13.37;;;;;;;1.67;84.07;100398.72;5054173;28;20206;-79
2021/01/03 08:23:15;;;;;;;14.70;13.20;;;;;;;1.71;83.91;100401.69;5054010;28;21003;-79
2021/01/03 08:25:41;;;;;;;14.50;13.13;;;;;;;1.68;84.14;100396.81;5053790;28;20179;-79
2021/01/03 08:28:11;;;;;;;15.67;13.40;;;;;;;1.69;84.11;100404.66;5053512;28;20907;-80
2021/01/03 08:30:38;;;;;;;17.83;16.03;;;;;;;1.67;84.28;100396.03;5053755;28;20651;-76
2021/01/03 08:33:21;;;;;;;17.33;14.07;;;;;;;1.70;84.68;100397.38;5052381;28;20462;-75
2021/01/03 08:35:47;;;;;;;19.43;15.90;;;;;;;1.67;84.75;100398.72;5053773;28;20417;-80
2021/01/03 08:38:12;;;;;;;19.17;16.00;;;;;;;1.68;84.52;100403.03;5053597;28;20439;-80
2021/01/03 08:40:42;;;;;;;18.40;16.17;;;;;;;1.70;85.03;100400.88;5053654;28;20269;-79
2021/01/03 08:43:18;;;;;;;13.47;12.07;;;;;;;1.69;84.87;100406.53;5053527;28;20254;-76
2021/01/03 08:45:45;;;;;;;22.77;14.43;;;;;;;1.70;85.13;100402.78;5053561;28;20471;-79
2021/01/03 08:48:13;;;;;;;20.53;15.77;;;;;;;1.73;85.72;100400.38;5053389;28;20511;-78
2021/01/03 08:50:41;;;;;;;23.17;17.07;;;;;;;1.66;86.00;100404.34;5053381;28;20414;-77
2021/01/03 08:53:18;;;;;;;20.87;16.13;;;;;;;1.68;86.44;100404.91;5053247;28;20408;-75
2021/01/03 08:55:43;;;;;;;20.63;15.20;;;;;;;1.68;86.74;100403.03;5052544;28;20417;-78
2021/01/03 08:58:12;;;;;;;22.93;18.93;;;;;;;1.61;87.08;100401.63;5053063;28;20463;-75
2021/01/03 09:00:42;;;;;;;27.27;18.97;;;;;;;1.57;87.34;100398.59;5053219;28;20175;-76
2021/01/03 09:03:15;;;;;;;25.47;17.30;;;;;;;1.60;87.57;100406.19;5053221;28;20422;-75
2021/01/03 09:05:43;;;;;;;25.47;18.10;;;;;;;1.59;87.65;100406.41;5053276;28;20425;-76
2021/01/03 09:08:19;;;;;;;27.33;18.67;;;;;;;1.57;87.89;100390.50;5052711;28;20991;-78
2021/01/03 09:10:44;;;;;;;43.00;24.90;;;;;;;1.57;88.55;100406.66;5051675;28;20786;-77
2021/01/03 09:13:23;;;;;;;53.50;27.40;;;;;;;1.52;88.54;100408.50;5052880;28;20418;-76
2021/01/03 09:15:59;;;;;;;46.23;24.63;;;;;;;1.51;88.98;100413.06;5051643;28;20206;-81
2021/01/03 09:18:32;;;;;;;42.10;20.83;;;;;;;1.50;89.50;100406.06;5053049;28;20453;-79
2021/01/03 09:21:10;;;;;;;42.37;23.43;;;;;;;1.45;89.67;100409.53;5052765;28;20403;-77
2021/01/03 09:23:40;;;;;;;36.47;19.97;;;;;;;1.45;90.26;100406.84;5053096;28;20406;-77
2021/01/03 09:26:06;;;;;;;44.30;22.43;;;;;;;1.44;90.16;100412.44;5052344;28;20425;-80
2021/01/03 09:28:35;;;;;;;36.23;16.47;;;;;;;1.45;90.02;100414.91;5052616;28;20492;-78
2021/01/03 09:31:24;;;;;;;38.30;15.07;;;;;;;1.42;90.60;100422.66;5052740;28;20410;-77
2021/01/03 09:33:51;;;;;;;42.77;22.20;;;;;;;1.40;90.71;100420.22;5052243;28;20987;-76
2021/01/03 09:36:38;;;;;;;49.33;21.77;;;;;;;1.39;90.86;100421.28;5052275;28;20969;-77
2021/01/03 09:39:12;;;;;;;46.40;22.33;;;;;;;1.40;90.96;100412.13;5050926;28;20751;-77
2021/01/03 09:42:03;;;;;;;42.17;23.30;;;;;;;1.41;91.20;100413.75;5050168;28;20900;-79
2021/01/03 09:44:43;;;;;;;46.40;21.43;;;;;;;1.41;91.47;100419.16;5052280;28;20511;-78
2021/01/03 09:47:13;;;;;;;41.53;21.23;;;;;;;1.43;90.87;100419.72;5050596;28;20516;-75
2021/01/03 09:49:40;;;;;;;46.43;20.87;;;;;;;1.42;91.22;100411.88;5052517;28;20422;-77
2021/01/03 09:52:08;;;;;;;48.53;23.00;;;;;;;1.42;91.85;100411.88;5050901;28;20440;-77
2021/01/03 09:54:56;;;;;;;33.87;16.60;;;;;;;1.44;91.46;100415.94;5052354;28;20445;-77
2021/01/03 09:57:34;;;;;;;50.10;26.43;;;;;;;1.34;92.09;100407.78;5051745;28;20428;-75
2021/01/03 09:59:59;;;;;;;46.00;22.80;;;;;;;1.34;92.00;100402.38;5052067;28;20421;-76
2021/01/03 10:02:25;;;;;;;47.27;22.60;;;;;;;1.29;92.29;100401.50;5052379;28;20420;-76
2021/01/03 10:04:51;;;;;;;47.80;22.33;;;;;;;1.28;92.74;100402.56;5051786;28;20225;-74
2021/01/03 10:07:28;;;;;;;43.60;22.13;;;;;;;1.27;92.59;100406.31;5048793;28;20238;-76
2021/01/03 10:10:06;;;;;;;48.50;23.57;;;;;;;1.25;92.49;100403.06;5051588;28;20721;-75
2021/01/03 10:12:35;;;;;;;38.77;20.07;;;;;;;1.21;92.93;100396.56;5052224;28;20468;-74
2021/01/03 10:15:06;;;;;;;44.53;21.60;;;;;;;1.26;93.22;100393.94;5051412;28;20414;-75
2021/01/03 10:17:32;;;;;;;43.43;22.07;;;;;;;1.28;93.13;100394.50;5051570;28;20418;-74
2021/01/03 10:19:58;;;;;;;40.17;19.57;;;;;;;1.23;93.03;100394.44;5051699;28;20425;-75
2021/01/03 10:22:29;;;;;;;38.10;21.53;;;;;;;1.27;93.47;100390.19;5053133;28;20716;-76
2021/01/03 10:25:06;;;;;;;42.97;22.57;;;;;;;1.20;93.41;100393.06;5060280;28;20185;-74
2021/01/03 10:27:31;;;;;;;37.73;14.40;;;;;;;1.26;93.60;100386.66;5032741;28;20862;-76
2021/01/03 10:29:57;;;;;;;38.17;20.50;;;;;;;1.24;93.24;100388.00;5032203;28;20430;-74
2021/01/03 10:32:22;;;;;;;36.87;18.27;;;;;;;1.22;93.32;100382.88;5031724;28;20210;-76
2021/01/03 10:34:48;;;;;;;25.30;14.30;;;;;;;1.25;93.21;100376.97;5031743;28;20179;-74
2021/01/03 10:37:14;;;;;;;20.13;12.43;;;;;;;1.26;92.92;100375.91;5031449;28;20168;-74
2021/01/03 10:39:40;;;;;;;20.67;14.43;;;;;;;1.26;93.04;100373.22;5030510;28;20188;-75
2021/01/03 10:42:07;;;;;;;30.07;17.03;;;;;;;1.31;93.23;100377.88;5040511;28;20187;-75
2021/01/03 10:44:33;;;;;;;32.67;19.90;;;;;;;1.28;93.09;100365.72;5031232;28;20449;-74
2021/01/03 10:46:59;;;;;;;29.87;17.10;;;;;;;1.29;93.09;100371.91;5030683;28;21145;-75
2021/01/03 10:49:24;;;;;;;24.27;18.60;;;;;;;1.25;93.00;100365.41;5030837;28;20434;-74
2021/01/03 10:51:53;;;;;;;25.90;17.57;;;;;;;1.21;93.16;100367.78;5030860;28;20624;-74
2021/01/03 10:54:23;;;;;;;23.30;16.50;;;;;;;1.20;93.28;100368.84;5030932;28;20263;-74
2021/01/03 10:56:52;;;;;;;27.20;16.80;;;;;;;1.21;93.51;100362.41;5030668;28;20768;-74
2021/01/03 10:59:18;;;;;;;28.40;17.43;;;;;;;1.27;93.36;100357.88;5030783;28;20811;-74
2021/01/03 11:01:45;;;;;;;21.43;17.47;;;;;;;1.22;93.61;100361.34;5031040;28;20429;-76
2021/01/03 11:04:11;;;;;;;23.77;16.20;;;;;;;1.21;93.51;100348.94;5030934;28;20172;-75
2021/01/03 11:06:41;;;;;;;21.93;15.40;;;;;;;1.26;93.34;100345.50;5030529;28;20423;-76
2021/01/03 11:09:12;;;;;;;20.30;13.60;;;;;;;1.28;93.30;100349.56;5030833;28;20485;-74
2021/01/03 11:11:37;;;;;;;12.60;10.03;;;;;;;1.27;93.10;100345.25;5030729;28;20822;-74
2021/01/03 11:14:03;;;;;;;16.87;14.73;;;;;;;1.23;93.90;100341.44;5047150;28;20511;-76
2021/01/03 11:16:33;;;;;;;26.73;16.03;;;;;;;1.25;93.45;100338.50;5050481;28;20179;-75
2021/01/03 11:18:58;;;;;;;22.03;14.80;;;;;;;1.18;93.22;100330.63;5050289;28;20548;-75
2021/01/03 11:21:24;;;;;;;16.77;10.90;;;;;;;1.22;93.53;100328.25;5050428;28;20421;-74
2021/01/03 11:23:49;;;;;;;24.57;15.70;;;;;;;1.21;93.45;100321.25;5050394;28;20180;-74
2021/01/03 11:26:14;;;;;;;25.13;15.57;;;;;;;1.16;93.85;100325.50;5050055;28;20709;-77
2021/01/03 11:28:40;;;;;;;27.33;17.83;;;;;;;1.10;94.04;100321.13;5050305;28;20716;-76
2021/01/03 11:31:06;;;;;;;19.80;14.83;;;;;;;1.15;93.42;100321.16;5050444;28;20168;-75
2021/01/03 11:33:31;;;;;;;27.93;16.27;;;;;;;1.10;93.95;100313.03;5050694;28;20182;-75
2021/01/03 11:35:57;;;;;;;17.87;13.63;;;;;;;1.12;93.61;100302.84;5048963;28;20167;-76
2021/01/03 11:38:22;;;;;;;19.13;13.27;;;;;;;1.04;93.57;100316.75;5050297;28;20255;-75
2021/01/03 11:40:48;;;;;;;28.37;18.47;;;;;;;1.09;93.96;100311.41;5050216;28;20175;-76